PWSweather.com
Personal Weather Stations
Station Observations
JOE4SPEED
Jupiter, Fl, Jupiter, FL 33458

Jupiter, FlJupiter, FL 33458

Lat: 26.9373, Lon: -80.1101

Elevation: 12

Station Type: Davis VP 2

http://www.joe4speed.com/wxindex.php

High Low Average
Temperature 70.1°F21.2°F 44.1°F6.7°F 56.5°F13.6°F
Dew Point 56.3°F13.5°F 37.8°F3.2°F 47.8°F8.8°F
Winds 8.1 mph N13.0 mph N Calm Calm 3.4 mph 5.5 mph
Wind Gusts 12.7 mph20.4 mph -- 5.3 mph8.5 mph
Humidity 82% 59% 73%
Pressure 30.31 in1026.40 in 30.20 in1022.70 in -
Precipitation 0.00 in0.00 in - -
Hour Temp Dew Point Humidity Winds Wind Gusts Pressure Precip Precip Rate Daily Precip Total
12:00 AM 45.8°F7.7°C 39.0°F3.9°C 77% 4.6 mph NW7.4 kmh NW 5.8 mph9.3 kmh 30.29 in1025.7 mb - 0.00 in0.0 mm 0.00 in0.0 mm
12:10 AM 45.8°F7.7°C 39.0°F3.9°C 77% 2.3 mph W3.7 kmh W 3.5 mph5.6 kmh 30.29 in1025.7 mb - 0.00 in0.0 mm 0.00 in0.0 mm
12:20 AM 45.5°F7.5°C 38.7°F3.7°C 77% 4.6 mph WNW7.4 kmh WNW 4.6 mph7.4 kmh 30.29 in1025.7 mb - 0.00 in0.0 mm 0.00 in0.0 mm
12:30 AM 45.2°F7.3°C 38.8°F3.8°C 78% 2.3 mph NW3.7 kmh NW 3.5 mph5.6 kmh 30.29 in1025.7 mb - 0.00 in0.0 mm 0.00 in0.0 mm
12:40 AM 44.8°F7.1°C 38.1°F3.4°C 77% 3.5 mph WNW5.6 kmh WNW 5.8 mph9.3 kmh 30.28 in1025.4 mb - 0.00 in0.0 mm 0.00 in0.0 mm
12:50 AM 44.6°F7.0°C 38.2°F3.4°C 78% 4.6 mph W7.4 kmh W 5.8 mph9.3 kmh 30.28 in1025.4 mb - 0.00 in0.0 mm 0.00 in0.0 mm
01:00 AM 44.3°F6.8°C 37.9°F3.3°C 78% 3.5 mph WNW5.6 kmh WNW 9.2 mph14.8 kmh 30.28 in1025.4 mb - 0.00 in0.0 mm 0.00 in0.0 mm
01:10 AM 44.2°F6.8°C 37.8°F3.2°C 78% 4.6 mph WNW7.4 kmh WNW 8.1 mph13.0 kmh 30.28 in1025.4 mb - 0.00 in0.0 mm 0.00 in0.0 mm
01:20 AM 44.2°F6.8°C 38.1°F3.4°C 79% 5.8 mph NW9.3 kmh NW 6.9 mph11.1 kmh 30.27 in1025.1 mb - 0.00 in0.0 mm 0.00 in0.0 mm
01:30 AM 44.1°F6.7°C 38.0°F3.3°C 79% 4.6 mph WNW7.4 kmh WNW 4.6 mph7.4 kmh 30.27 in1025.1 mb - 0.00 in0.0 mm 0.00 in0.0 mm
01:40 AM 44.1°F6.7°C 38.0°F3.3°C 79% 4.6 mph WNW7.4 kmh WNW 9.2 mph14.8 kmh 30.27 in1025.1 mb - 0.00 in0.0 mm 0.00 in0.0 mm
01:50 AM 44.1°F6.7°C 38.0°F3.3°C 79% 3.5 mph NW5.6 kmh NW 4.6 mph7.4 kmh 30.26 in1024.7 mb - 0.00 in0.0 mm 0.00 in0.0 mm
02:00 AM 44.1°F6.7°C 38.0°F3.3°C 79% 4.6 mph NW7.4 kmh NW 8.1 mph13.0 kmh 30.26 in1024.7 mb - 0.00 in0.0 mm 0.00 in0.0 mm
02:10 AM 44.2°F6.8°C 38.1°F3.4°C 79% 4.6 mph WNW7.4 kmh WNW 8.1 mph13.0 kmh 30.26 in1024.7 mb - 0.00 in0.0 mm 0.00 in0.0 mm
02:20 AM 44.4°F6.9°C 38.3°F3.5°C 79% 4.6 mph WNW7.4 kmh WNW 5.8 mph9.3 kmh 30.26 in1024.7 mb - 0.00 in0.0 mm 0.00 in0.0 mm
02:30 AM 44.6°F7.0°C 38.8°F3.8°C 80% 5.8 mph WNW9.3 kmh WNW 6.9 mph11.1 kmh 30.26 in1024.7 mb - 0.00 in0.0 mm 0.00 in0.0 mm
02:40 AM 44.5°F6.9°C 38.8°F3.8°C 80% 2.3 mph NW3.7 kmh NW 3.5 mph5.6 kmh 30.25 in1024.4 mb - 0.00 in0.0 mm 0.00 in0.0 mm
02:50 AM 44.7°F7.1°C 38.9°F3.8°C 80% 4.6 mph NW7.4 kmh NW 6.9 mph11.1 kmh 30.25 in1024.4 mb - 0.00 in0.0 mm 0.00 in0.0 mm
03:00 AM 44.8°F7.1°C 39.0°F3.9°C 80% 5.8 mph NW9.3 kmh NW 9.2 mph14.8 kmh 30.25 in1024.4 mb - 0.00 in0.0 mm 0.00 in0.0 mm
03:10 AM 44.7°F7.1°C 39.0°F3.9°C 80% 2.3 mph W3.7 kmh W 3.5 mph5.6 kmh 30.25 in1024.4 mb - 0.00 in0.0 mm 0.00 in0.0 mm
03:20 AM 44.5°F6.9°C 38.7°F3.7°C 80% 3.5 mph NW5.6 kmh NW 4.6 mph7.4 kmh 30.24 in1024.0 mb - 0.00 in0.0 mm 0.00 in0.0 mm
03:30 AM 44.4°F6.9°C 38.6°F3.7°C 80% 3.5 mph WNW5.6 kmh WNW 5.8 mph9.3 kmh 30.25 in1024.4 mb - 0.00 in0.0 mm 0.00 in0.0 mm
03:40 AM 44.3°F6.8°C 38.5°F3.6°C 80% 2.3 mph WNW3.7 kmh WNW 4.6 mph7.4 kmh 30.24 in1024.0 mb - 0.00 in0.0 mm 0.00 in0.0 mm
03:50 AM 44.3°F6.8°C 38.5°F3.6°C 80% 4.6 mph NW7.4 kmh NW 5.8 mph9.3 kmh 30.24 in1024.0 mb - 0.00 in0.0 mm 0.00 in0.0 mm
04:00 AM 44.4°F6.9°C 38.6°F3.7°C 80% 3.5 mph NW5.6 kmh NW 5.8 mph9.3 kmh 30.25 in1024.4 mb - 0.00 in0.0 mm 0.00 in0.0 mm
04:10 AM 44.5°F6.9°C 39.0°F3.9°C 81% 4.6 mph NW7.4 kmh NW 5.8 mph9.3 kmh 30.25 in1024.4 mb - 0.00 in0.0 mm 0.00 in0.0 mm
04:20 AM 44.5°F6.9°C 39.0°F3.9°C 81% 4.6 mph NW7.4 kmh NW 6.9 mph11.1 kmh 30.25 in1024.4 mb - 0.00 in0.0 mm 0.00 in0.0 mm
04:30 AM 44.6°F7.0°C 39.1°F3.9°C 81% 3.5 mph NW5.6 kmh NW 4.6 mph7.4 kmh 30.24 in1024.0 mb - 0.00 in0.0 mm 0.00 in0.0 mm
04:40 AM 44.5°F6.9°C 39.0°F3.9°C 81% 3.5 mph NW5.6 kmh NW 5.8 mph9.3 kmh 30.25 in1024.4 mb - 0.00 in0.0 mm 0.00 in0.0 mm
04:50 AM 44.5°F6.9°C 39.0°F3.9°C 81% 4.6 mph WNW7.4 kmh WNW 6.9 mph11.1 kmh 30.25 in1024.4 mb - 0.00 in0.0 mm 0.00 in0.0 mm
05:00 AM 44.5°F6.9°C 39.0°F3.9°C 81% 4.6 mph NW7.4 kmh NW 4.6 mph7.4 kmh 30.25 in1024.4 mb - 0.00 in0.0 mm 0.00 in0.0 mm
05:10 AM 44.6°F7.0°C 39.1°F3.9°C 81% 2.3 mph NW3.7 kmh NW 3.5 mph5.6 kmh 30.25 in1024.4 mb - 0.00 in0.0 mm 0.00 in0.0 mm
05:20 AM 44.6°F7.0°C 39.1°F3.9°C 81% 4.6 mph NW7.4 kmh NW 5.8 mph9.3 kmh 30.25 in1024.4 mb - 0.00 in0.0 mm 0.00 in0.0 mm
05:30 AM 44.8°F7.1°C 39.3°F4.1°C 81% 2.3 mph NW3.7 kmh NW 5.8 mph9.3 kmh 30.25 in1024.4 mb - 0.00 in0.0 mm 0.00 in0.0 mm
05:40 AM 45.0°F7.2°C 39.5°F4.2°C 81% 3.5 mph NW5.6 kmh NW 4.6 mph7.4 kmh 30.25 in1024.4 mb - 0.00 in0.0 mm 0.00 in0.0 mm
05:50 AM 45.0°F7.2°C 39.5°F4.2°C 81% 4.6 mph NW7.4 kmh NW 6.9 mph11.1 kmh 30.25 in1024.4 mb - 0.00 in0.0 mm 0.00 in0.0 mm
06:00 AM 45.0°F7.2°C 39.5°F4.2°C 81% 2.3 mph NW3.7 kmh NW 5.8 mph9.3 kmh 30.25 in1024.4 mb - 0.00 in0.0 mm 0.00 in0.0 mm
06:10 AM 44.9°F7.2°C 39.4°F4.1°C 81% 4.6 mph NW7.4 kmh NW 4.6 mph7.4 kmh 30.26 in1024.7 mb - 0.00 in0.0 mm 0.00 in0.0 mm
06:20 AM 44.8°F7.1°C 39.3°F4.1°C 81% 2.3 mph NW3.7 kmh NW 3.5 mph5.6 kmh 30.26 in1024.7 mb - 0.00 in0.0 mm 0.00 in0.0 mm
06:30 AM 44.9°F7.2°C 39.7°F4.3°C 82% 2.3 mph NW3.7 kmh NW 3.5 mph5.6 kmh 30.26 in1024.7 mb - 0.00 in0.0 mm 0.00 in0.0 mm
06:40 AM 45.1°F7.3°C 39.9°F4.4°C 82% 2.3 mph NW3.7 kmh NW 3.5 mph5.6 kmh 30.26 in1024.7 mb - 0.00 in0.0 mm 0.00 in0.0 mm
06:50 AM 45.3°F7.4°C 39.8°F4.3°C 81% 3.5 mph NW5.6 kmh NW 4.6 mph7.4 kmh 30.27 in1025.1 mb - 0.00 in0.0 mm 0.00 in0.0 mm
07:00 AM 45.5°F7.5°C 40.3°F4.6°C 82% 2.3 mph WNW3.7 kmh WNW 4.6 mph7.4 kmh 30.26 in1024.7 mb - 0.00 in0.0 mm 0.00 in0.0 mm
07:10 AM 45.6°F7.6°C 40.4°F4.7°C 82% 4.6 mph NW7.4 kmh NW 8.1 mph13.0 kmh 30.27 in1025.1 mb - 0.00 in0.0 mm 0.00 in0.0 mm
07:20 AM 46.1°F7.8°C 40.9°F4.9°C 82% 3.5 mph NW5.6 kmh NW 5.8 mph9.3 kmh 30.27 in1025.1 mb - 0.00 in0.0 mm 0.00 in0.0 mm
07:30 AM 46.9°F8.3°C 41.7°F5.4°C 82% 3.5 mph NW5.6 kmh NW 4.6 mph7.4 kmh 30.27 in1025.1 mb - 0.00 in0.0 mm 0.00 in0.0 mm
07:40 AM 47.1°F8.4°C 41.9°F5.5°C 82% 3.5 mph NW5.6 kmh NW 4.6 mph7.4 kmh 30.27 in1025.1 mb - 0.00 in0.0 mm 0.00 in0.0 mm
07:50 AM 47.4°F8.6°C 42.2°F5.7°C 82% 3.5 mph NW5.6 kmh NW 5.8 mph9.3 kmh 30.27 in1025.1 mb - 0.00 in0.0 mm 0.00 in0.0 mm
08:00 AM 48.1°F8.9°C 42.9°F6.1°C 82% 4.6 mph NW7.4 kmh NW 4.6 mph7.4 kmh 30.28 in1025.4 mb - 0.00 in0.0 mm 0.00 in0.0 mm
08:10 AM 49.2°F9.6°C 43.9°F6.6°C 82% 2.3 mph NW3.7 kmh NW 4.6 mph7.4 kmh 30.28 in1025.4 mb - 0.00 in0.0 mm 0.00 in0.0 mm
08:20 AM 50.2°F10.1°C 44.9°F7.2°C 82% 3.5 mph NNW5.6 kmh NNW 4.6 mph7.4 kmh 30.28 in1025.4 mb - 0.00 in0.0 mm 0.00 in0.0 mm
08:30 AM 51.4°F10.8°C 46.1°F7.8°C 82% 3.5 mph NW5.6 kmh NW 6.9 mph11.1 kmh 30.28 in1025.4 mb - 0.00 in0.0 mm 0.00 in0.0 mm
08:40 AM 53.3°F11.8°C 47.6°F8.7°C 81% 3.5 mph NW5.6 kmh NW 8.1 mph13.0 kmh 30.29 in1025.7 mb - 0.00 in0.0 mm 0.00 in0.0 mm
08:50 AM 54.9°F12.7°C 48.5°F9.2°C 79% 3.5 mph NNW5.6 kmh NNW 5.8 mph9.3 kmh 30.29 in1025.7 mb - 0.00 in0.0 mm 0.00 in0.0 mm
09:00 AM 56.7°F13.7°C 49.2°F9.6°C 76% 3.5 mph NW5.6 kmh NW 4.6 mph7.4 kmh 30.30 in1026.1 mb - 0.00 in0.0 mm 0.00 in0.0 mm
09:10 AM 58.3°F14.6°C 50.0°F10.0°C 74% 2.3 mph N3.7 kmh N 3.5 mph5.6 kmh 30.30 in1026.1 mb - 0.00 in0.0 mm 0.00 in0.0 mm
09:20 AM 59.7°F15.4°C 50.7°F10.4°C 72% 4.6 mph NW7.4 kmh NW 6.9 mph11.1 kmh 30.30 in1026.1 mb - 0.00 in0.0 mm 0.00 in0.0 mm
09:30 AM 61.3°F16.3°C 51.8°F11.0°C 71% 3.5 mph N5.6 kmh N 3.5 mph5.6 kmh 30.30 in1026.1 mb - 0.00 in0.0 mm 0.00 in0.0 mm
09:40 AM 62.3°F16.8°C 51.6°F10.9°C 68% 6.9 mph NW11.1 kmh NW 11.5 mph18.5 kmh 30.30 in1026.1 mb - 0.00 in0.0 mm 0.00 in0.0 mm
09:50 AM 62.9°F17.2°C 51.8°F11.0°C 67% 5.8 mph N9.3 kmh N 9.2 mph14.8 kmh 30.30 in1026.1 mb - 0.00 in0.0 mm 0.00 in0.0 mm
10:00 AM 64.1°F17.8°C 52.5°F11.4°C 66% 4.6 mph N7.4 kmh N 8.1 mph13.0 kmh 30.30 in1026.1 mb - 0.00 in0.0 mm 0.00 in0.0 mm
10:10 AM 64.9°F18.3°C 52.5°F11.4°C 64% 8.1 mph N13.0 kmh N 12.7 mph20.4 kmh 30.30 in1026.1 mb - 0.00 in0.0 mm 0.00 in0.0 mm
10:20 AM 64.9°F18.3°C 52.4°F11.3°C 64% 5.8 mph N9.3 kmh N 9.2 mph14.8 kmh 30.30 in1026.1 mb - 0.00 in0.0 mm 0.00 in0.0 mm
10:30 AM 65.9°F18.8°C 53.4°F11.9°C 64% 5.8 mph N9.3 kmh N 9.2 mph14.8 kmh 30.31 in1026.4 mb - 0.00 in0.0 mm 0.00 in0.0 mm
10:40 AM 67.4°F19.7°C 53.9°F12.2°C 62% 4.6 mph N7.4 kmh N 11.5 mph18.5 kmh 30.30 in1026.1 mb - 0.00 in0.0 mm 0.00 in0.0 mm
10:50 AM 68.0°F20.0°C 54.0°F12.2°C 61% 5.8 mph N9.3 kmh N 8.1 mph13.0 kmh 30.30 in1026.1 mb - 0.00 in0.0 mm 0.00 in0.0 mm
11:00 AM 68.6°F20.3°C 54.6°F12.6°C 61% 5.8 mph N9.3 kmh N 8.1 mph13.0 kmh 30.30 in1026.1 mb - 0.00 in0.0 mm 0.00 in0.0 mm
11:10 AM 69.0°F20.6°C 54.5°F12.5°C 60% 6.9 mph N11.1 kmh N 12.7 mph20.4 kmh 30.30 in1026.1 mb - 0.00 in0.0 mm 0.00 in0.0 mm
11:20 AM 68.5°F20.3°C 53.6°F12.0°C 59% 8.1 mph N13.0 kmh N 11.5 mph18.5 kmh 30.29 in1025.7 mb - 0.00 in0.0 mm 0.00 in0.0 mm
11:30 AM 67.4°F19.7°C 53.0°F11.7°C 60% 5.8 mph N9.3 kmh N 9.2 mph14.8 kmh 30.29 in1025.7 mb - 0.00 in0.0 mm 0.00 in0.0 mm
11:40 AM 67.3°F19.6°C 53.4°F11.9°C 61% 8.1 mph N13.0 kmh N 9.2 mph14.8 kmh 30.29 in1025.7 mb - 0.00 in0.0 mm 0.00 in0.0 mm
11:50 AM 67.8°F19.9°C 53.9°F12.2°C 61% 5.8 mph N9.3 kmh N 9.2 mph14.8 kmh 30.29 in1025.7 mb - 0.00 in0.0 mm 0.00 in0.0 mm
12:00 PM 68.8°F20.4°C 54.3°F12.4°C 60% 3.5 mph N5.6 kmh N 11.5 mph18.5 kmh 30.29 in1025.7 mb - 0.00 in0.0 mm 0.00 in0.0 mm
12:10 PM 67.5°F19.7°C 54.0°F12.2°C 62% 6.9 mph N11.1 kmh N 9.2 mph14.8 kmh 30.28 in1025.4 mb - 0.00 in0.0 mm 0.00 in0.0 mm
12:20 PM 66.8°F19.3°C 53.3°F11.8°C 62% 5.8 mph NNE9.3 kmh NNE 9.2 mph14.8 kmh 30.28 in1025.4 mb - 0.00 in0.0 mm 0.00 in0.0 mm
12:30 PM 66.7°F19.3°C 53.7°F12.1°C 63% 5.8 mph N9.3 kmh N 11.5 mph18.5 kmh 30.28 in1025.4 mb - 0.00 in0.0 mm 0.00 in0.0 mm
12:40 PM 67.0°F19.4°C 54.0°F12.2°C 63% 4.6 mph NNE7.4 kmh NNE 5.8 mph9.3 kmh 30.27 in1025.1 mb - 0.00 in0.0 mm 0.00 in0.0 mm
12:50 PM 66.9°F19.4°C 53.5°F11.9°C 62% 6.9 mph NNE11.1 kmh NNE 8.1 mph13.0 kmh 30.26 in1024.7 mb - 0.00 in0.0 mm 0.00 in0.0 mm
01:00 PM 65.8°F18.8°C 53.3°F11.8°C 64% 4.6 mph NNE7.4 kmh NNE 9.2 mph14.8 kmh 30.26 in1024.7 mb - 0.00 in0.0 mm 0.00 in0.0 mm
01:10 PM 67.9°F19.9°C 54.9°F12.7°C 63% 5.8 mph NNW9.3 kmh NNW 8.1 mph13.0 kmh 30.25 in1024.4 mb - 0.00 in0.0 mm 0.00 in0.0 mm
01:20 PM 69.7°F20.9°C 55.6°F13.1°C 61% 4.6 mph NNE7.4 kmh NNE 8.1 mph13.0 kmh 30.25 in1024.4 mb - 0.00 in0.0 mm 0.00 in0.0 mm
01:30 PM 68.7°F20.4°C 55.2°F12.9°C 62% 4.6 mph N7.4 kmh N 6.9 mph11.1 kmh 30.24 in1024.0 mb - 0.00 in0.0 mm 0.00 in0.0 mm
01:40 PM 68.5°F20.3°C 55.0°F12.8°C 62% 3.5 mph N5.6 kmh N 4.6 mph7.4 kmh 30.24 in1024.0 mb - 0.00 in0.0 mm 0.00 in0.0 mm
01:50 PM 67.9°F19.9°C 54.4°F12.4°C 62% 4.6 mph N7.4 kmh N 6.9 mph11.1 kmh 30.24 in1024.0 mb - 0.00 in0.0 mm 0.00 in0.0 mm
02:00 PM 67.1°F19.5°C 53.6°F12.0°C 62% 4.6 mph N7.4 kmh N 5.8 mph9.3 kmh 30.23 in1023.7 mb - 0.00 in0.0 mm 0.00 in0.0 mm
02:10 PM 67.7°F19.8°C 54.2°F12.3°C 62% 5.8 mph N9.3 kmh N 10.4 mph16.7 kmh 30.23 in1023.7 mb - 0.00 in0.0 mm 0.00 in0.0 mm
02:20 PM 70.1°F21.2°C 56.1°F13.4°C 61% 3.5 mph N5.6 kmh N 5.8 mph9.3 kmh 30.23 in1023.7 mb - 0.00 in0.0 mm 0.00 in0.0 mm
02:30 PM 69.9°F21.1°C 56.3°F13.5°C 62% 3.5 mph N5.6 kmh N 4.6 mph7.4 kmh 30.22 in1023.4 mb - 0.00 in0.0 mm 0.00 in0.0 mm
02:40 PM 69.9°F21.1°C 56.2°F13.4°C 62% 4.6 mph N7.4 kmh N 9.2 mph14.8 kmh 30.22 in1023.4 mb - 0.00 in0.0 mm 0.00 in0.0 mm
02:50 PM 69.7°F20.9°C 56.1°F13.4°C 62% 5.8 mph NNE9.3 kmh NNE 9.2 mph14.8 kmh 30.22 in1023.4 mb - 0.00 in0.0 mm 0.00 in0.0 mm
03:00 PM 69.0°F20.6°C 55.4°F13.0°C 62% 3.5 mph NNE5.6 kmh NNE 4.6 mph7.4 kmh 30.22 in1023.4 mb - 0.00 in0.0 mm 0.00 in0.0 mm
03:10 PM 67.7°F19.8°C 54.2°F12.3°C 62% 3.5 mph N5.6 kmh N 5.8 mph9.3 kmh 30.22 in1023.4 mb - 0.00 in0.0 mm 0.00 in0.0 mm
03:20 PM 67.9°F19.9°C 54.8°F12.7°C 63% 4.6 mph N7.4 kmh N 8.1 mph13.0 kmh 30.22 in1023.4 mb - 0.00 in0.0 mm 0.00 in0.0 mm
03:30 PM 66.8°F19.3°C 53.8°F12.1°C 63% 4.6 mph NNE7.4 kmh NNE 5.8 mph9.3 kmh 30.23 in1023.7 mb - 0.00 in0.0 mm 0.00 in0.0 mm
03:40 PM 67.1°F19.5°C 54.1°F12.3°C 63% 2.3 mph NNE3.7 kmh NNE 3.5 mph5.6 kmh 30.22 in1023.4 mb - 0.00 in0.0 mm 0.00 in0.0 mm
03:50 PM 67.4°F19.7°C 54.4°F12.4°C 63% 4.6 mph N7.4 kmh N 8.1 mph13.0 kmh 30.22 in1023.4 mb - 0.00 in0.0 mm 0.00 in0.0 mm
04:00 PM 66.4°F19.1°C 53.5°F11.9°C 63% 3.5 mph N5.6 kmh N 5.8 mph9.3 kmh 30.21 in1023.0 mb - 0.00 in0.0 mm 0.00 in0.0 mm
04:10 PM 65.4°F18.6°C 52.9°F11.6°C 64% 6.9 mph N11.1 kmh N 9.2 mph14.8 kmh 30.21 in1023.0 mb - 0.00 in0.0 mm 0.00 in0.0 mm
04:20 PM 64.9°F18.3°C 52.8°F11.6°C 65% 4.6 mph N7.4 kmh N 8.1 mph13.0 kmh 30.21 in1023.0 mb - 0.00 in0.0 mm 0.00 in0.0 mm
04:30 PM 64.6°F18.1°C 53.0°F11.7°C 66% 4.6 mph N7.4 kmh N 8.1 mph13.0 kmh 30.21 in1023.0 mb - 0.00 in0.0 mm 0.00 in0.0 mm
04:40 PM 64.4°F18.0°C 52.8°F11.6°C 66% 4.6 mph N7.4 kmh N 5.8 mph9.3 kmh 30.21 in1023.0 mb - 0.00 in0.0 mm 0.00 in0.0 mm
04:50 PM 64.0°F17.8°C 52.8°F11.6°C 67% 3.5 mph N5.6 kmh N 6.9 mph11.1 kmh 30.20 in1022.7 mb - 0.00 in0.0 mm 0.00 in0.0 mm
05:00 PM 63.7°F17.6°C 52.5°F11.4°C 67% 4.6 mph N7.4 kmh N 6.9 mph11.1 kmh 30.20 in1022.7 mb - 0.00 in0.0 mm 0.00 in0.0 mm
05:10 PM 63.4°F17.4°C 52.7°F11.5°C 68% 3.5 mph NNW5.6 kmh NNW 4.6 mph7.4 kmh 30.21 in1023.0 mb - 0.00 in0.0 mm 0.00 in0.0 mm
05:20 PM 63.0°F17.2°C 52.7°F11.5°C 69% 3.5 mph NW5.6 kmh NW 3.5 mph5.6 kmh 30.21 in1023.0 mb - 0.00 in0.0 mm 0.00 in0.0 mm
05:30 PM 62.6°F17.0°C 52.3°F11.3°C 69% 3.5 mph N5.6 kmh N 3.5 mph5.6 kmh 30.22 in1023.4 mb - 0.00 in0.0 mm 0.00 in0.0 mm
05:40 PM 62.3°F16.8°C 52.4°F11.3°C 70% 1.2 mph NW1.9 kmh NW 2.3 mph3.7 kmh 30.21 in1023.0 mb - 0.00 in0.0 mm 0.00 in0.0 mm
05:50 PM 62.1°F16.7°C 52.6°F11.4°C 71% 4.6 mph N7.4 kmh N 4.6 mph7.4 kmh 30.20 in1022.7 mb - 0.00 in0.0 mm 0.00 in0.0 mm
06:00 PM 61.7°F16.5°C 52.2°F11.2°C 71% Calm Calm -- 30.21 in1023.0 mb - 0.00 in0.0 mm 0.00 in0.0 mm
06:10 PM 61.3°F16.3°C 52.2°F11.2°C 72% 1.2 mph NW1.9 kmh NW 2.3 mph3.7 kmh 30.21 in1023.0 mb - 0.00 in0.0 mm 0.00 in0.0 mm
06:20 PM 61.0°F16.1°C 51.9°F11.1°C 72% 1.2 mph NNW1.9 kmh NNW 2.3 mph3.7 kmh 30.21 in1023.0 mb - 0.00 in0.0 mm 0.00 in0.0 mm
06:30 PM 60.6°F15.9°C 51.9°F11.1°C 73% Calm Calm -- 30.21 in1023.0 mb - 0.00 in0.0 mm 0.00 in0.0 mm
06:40 PM 60.3°F15.7°C 51.6°F10.9°C 73% Calm Calm -- 30.21 in1023.0 mb - 0.00 in0.0 mm 0.00 in0.0 mm
06:50 PM 59.9°F15.5°C 51.5°F10.8°C 74% Calm Calm -- 30.21 in1023.0 mb - 0.00 in0.0 mm 0.00 in0.0 mm
07:00 PM 59.5°F15.3°C 51.2°F10.7°C 74% Calm Calm -- 30.21 in1023.0 mb - 0.00 in0.0 mm 0.00 in0.0 mm
07:10 PM 59.3°F15.2°C 51.4°F10.8°C 75% Calm Calm -- 30.21 in1023.0 mb - 0.00 in0.0 mm 0.00 in0.0 mm
07:20 PM 59.2°F15.1°C 51.3°F10.7°C 75% 1.2 mph NW1.9 kmh NW 3.5 mph5.6 kmh 30.21 in1023.0 mb - 0.00 in0.0 mm 0.00 in0.0 mm
07:30 PM 58.9°F14.9°C 51.3°F10.7°C 76% 1.2 mph NW1.9 kmh NW 2.3 mph3.7 kmh 30.21 in1023.0 mb - 0.00 in0.0 mm 0.00 in0.0 mm
07:40 PM 58.7°F14.8°C 51.1°F10.6°C 76% 1.2 mph NW1.9 kmh NW 2.3 mph3.7 kmh 30.23 in1023.7 mb - 0.00 in0.0 mm 0.00 in0.0 mm
07:50 PM 58.6°F14.8°C 51.4°F10.8°C 77% 2.3 mph NW3.7 kmh NW 3.5 mph5.6 kmh 30.23 in1023.7 mb - 0.00 in0.0 mm 0.00 in0.0 mm
08:00 PM 58.4°F14.7°C 51.2°F10.7°C 77% Calm Calm -- 30.23 in1023.7 mb - 0.00 in0.0 mm 0.00 in0.0 mm
08:10 PM 58.2°F14.6°C 51.0°F10.6°C 77% 2.3 mph NW3.7 kmh NW 2.3 mph3.7 kmh 30.23 in1023.7 mb - 0.00 in0.0 mm 0.00 in0.0 mm
08:20 PM 58.3°F14.6°C 51.5°F10.8°C 78% 2.3 mph NNW3.7 kmh NNW 4.6 mph7.4 kmh 30.23 in1023.7 mb - 0.00 in0.0 mm 0.00 in0.0 mm
08:30 PM 58.5°F14.7°C 51.7°F10.9°C 78% 1.2 mph NW1.9 kmh NW 3.5 mph5.6 kmh 30.23 in1023.7 mb - 0.00 in0.0 mm 0.00 in0.0 mm
08:40 PM 58.6°F14.8°C 51.7°F10.9°C 78% 2.3 mph NNW3.7 kmh NNW 4.6 mph7.4 kmh 30.23 in1023.7 mb - 0.00 in0.0 mm 0.00 in0.0 mm
08:50 PM 58.6°F14.8°C 52.1°F11.2°C 79% 2.3 mph NW3.7 kmh NW 2.3 mph3.7 kmh 30.24 in1024.0 mb - 0.00 in0.0 mm 0.00 in0.0 mm
09:00 PM 58.5°F14.7°C 52.0°F11.1°C 79% 3.5 mph NW5.6 kmh NW 4.6 mph7.4 kmh 30.24 in1024.0 mb - 0.00 in0.0 mm 0.00 in0.0 mm
09:10 PM 58.5°F14.7°C 52.0°F11.1°C 79% 2.3 mph NW3.7 kmh NW 5.8 mph9.3 kmh 30.25 in1024.4 mb - 0.00 in0.0 mm 0.00 in0.0 mm
09:20 PM 58.5°F14.7°C 52.0°F11.1°C 79% Calm Calm -- 30.24 in1024.0 mb - 0.00 in0.0 mm 0.00 in0.0 mm
09:30 PM 58.4°F14.7°C 51.9°F11.1°C 79% Calm Calm -- 30.25 in1024.4 mb - 0.00 in0.0 mm 0.00 in0.0 mm
09:40 PM 58.2°F14.6°C 51.7°F10.9°C 79% Calm Calm -- 30.25 in1024.4 mb - 0.00 in0.0 mm 0.00 in0.0 mm
09:50 PM 58.0°F14.4°C 51.5°F10.8°C 79% Calm Calm -- 30.25 in1024.4 mb - 0.00 in0.0 mm 0.00 in0.0 mm
10:00 PM 58.0°F14.4°C 51.5°F10.8°C 79% Calm Calm -- 30.25 in1024.4 mb - 0.00 in0.0 mm 0.00 in0.0 mm
10:10 PM 58.0°F14.4°C 51.5°F10.8°C 79% Calm Calm -- 30.25 in1024.4 mb - 0.00 in0.0 mm 0.00 in0.0 mm
10:20 PM 58.0°F14.4°C 51.5°F10.8°C 79% Calm Calm -- 30.25 in1024.4 mb - 0.00 in0.0 mm 0.00 in0.0 mm
10:30 PM 58.0°F14.4°C 51.5°F10.8°C 79% Calm Calm -- 30.25 in1024.4 mb - 0.00 in0.0 mm 0.00 in0.0 mm
10:40 PM 57.8°F14.3°C 51.3°F10.7°C 79% Calm Calm -- 30.24 in1024.0 mb - 0.00 in0.0 mm 0.00 in0.0 mm
10:50 PM 57.4°F14.1°C 50.9°F10.5°C 79% Calm Calm -- 30.25 in1024.4 mb - 0.00 in0.0 mm 0.00 in0.0 mm
11:00 PM 57.1°F13.9°C 50.6°F10.3°C 79% Calm Calm -- 30.25 in1024.4 mb - 0.00 in0.0 mm 0.00 in0.0 mm
11:10 PM 56.7°F13.7°C 50.3°F10.2°C 79% Calm Calm -- 30.25 in1024.4 mb - 0.00 in0.0 mm 0.00 in0.0 mm
11:20 PM 56.5°F13.6°C 50.1°F10.1°C 79% Calm Calm -- 30.25 in1024.4 mb - 0.00 in0.0 mm 0.00 in0.0 mm
11:30 PM 56.3°F13.5°C 50.2°F10.1°C 80% Calm Calm -- 30.25 in1024.4 mb - 0.00 in0.0 mm 0.00 in0.0 mm
11:40 PM 56.3°F13.5°C 50.2°F10.1°C 80% Calm Calm -- 30.25 in1024.4 mb - 0.00 in0.0 mm 0.00 in0.0 mm
11:50 PM 56.3°F13.5°C 50.2°F10.1°C 80% Calm Calm -- 30.24 in1024.0 mb - 0.00 in0.0 mm 0.00 in0.0 mm